sensor_id;sensor_type;location;lat;lon;timestamp;P1;durP1;ratioP1;P2;durP2;ratioP2
50880;SDS011;36858;47.832;-3.800;2023-03-01T07:09:08;12.10;;;9.17;;
50880;SDS011;36858;47.832;-3.800;2023-03-01T07:11:35;12.33;;;9.03;;
50880;SDS011;36858;47.832;-3.800;2023-03-01T07:14:02;14.50;;;9.23;;
50880;SDS011;36858;47.832;-3.800;2023-03-01T07:16:29;14.90;;;9.30;;
50880;SDS011;36858;47.832;-3.800;2023-03-01T07:18:57;11.83;;;9.10;;
50880;SDS011;36858;47.832;-3.800;2023-03-01T07:21:25;14.70;;;9.23;;
50880;SDS011;36858;47.832;-3.800;2023-03-01T07:23:51;9.93;;;8.17;;
50880;SDS011;36858;47.832;-3.800;2023-03-01T07:26:18;12.43;;;8.27;;
50880;SDS011;36858;47.832;-3.800;2023-03-01T07:28:45;13.97;;;8.40;;
50880;SDS011;36858;47.832;-3.800;2023-03-01T07:31:12;13.13;;;8.67;;
50880;SDS011;36858;47.832;-3.800;2023-03-01T07:33:40;17.23;;;8.77;;
50880;SDS011;36858;47.832;-3.800;2023-03-01T07:36:07;10.80;;;7.60;;
50880;SDS011;36858;47.832;-3.800;2023-03-01T07:38:35;17.50;;;7.90;;
50880;SDS011;36858;47.832;-3.800;2023-03-01T07:41:03;23.17;;;8.13;;
50880;SDS011;36858;47.832;-3.800;2023-03-01T07:43:30;16.10;;;7.33;;
50880;SDS011;36858;47.832;-3.800;2023-03-01T07:46:00;9.90;;;7.57;;
50880;SDS011;36858;47.832;-3.800;2023-03-01T07:48:28;8.17;;;6.20;;
50880;SDS011;36858;47.832;-3.800;2023-03-01T07:51:00;10.07;;;7.47;;
50880;SDS011;36858;47.832;-3.800;2023-03-01T07:53:28;8.50;;;7.37;;
50880;SDS011;36858;47.832;-3.800;2023-03-01T07:56:02;8.80;;;6.37;;
50880;SDS011;36858;47.832;-3.800;2023-03-01T07:58:29;9.10;;;6.80;;
50880;SDS011;36858;47.832;-3.800;2023-03-01T08:00:55;7.63;;;6.63;;
50880;SDS011;36858;47.832;-3.800;2023-03-01T08:03:22;7.00;;;6.03;;
50880;SDS011;36858;47.832;-3.800;2023-03-01T08:05:49;7.87;;;6.77;;
50880;SDS011;36858;47.832;-3.800;2023-03-01T08:08:16;8.03;;;6.63;;
50880;SDS011;36858;47.832;-3.800;2023-03-01T08:10:43;7.57;;;6.63;;
50880;SDS011;36858;47.832;-3.800;2023-03-01T08:13:10;8.53;;;6.27;;
50880;SDS011;36858;47.832;-3.800;2023-03-01T08:15:37;8.60;;;7.00;;
50880;SDS011;36858;47.832;-3.800;2023-03-01T08:18:04;15.07;;;7.57;;
50880;SDS011;36858;47.832;-3.800;2023-03-01T08:20:32;10.67;;;7.23;;
50880;SDS011;36858;47.832;-3.800;2023-03-01T08:22:59;9.93;;;7.90;;
50880;SDS011;36858;47.832;-3.800;2023-03-01T08:25:26;10.67;;;7.93;;
50880;SDS011;36858;47.832;-3.800;2023-03-01T08:27:53;9.07;;;7.47;;
50880;SDS011;36858;47.832;-3.800;2023-03-01T08:30:21;11.87;;;7.73;;
50880;SDS011;36858;47.832;-3.800;2023-03-01T08:32:50;9.63;;;7.13;;
50880;SDS011;36858;47.832;-3.800;2023-03-01T08:35:17;8.70;;;7.17;;
50880;SDS011;36858;47.832;-3.800;2023-03-01T08:37:44;7.87;;;6.97;;
50880;SDS011;36858;47.832;-3.800;2023-03-01T08:40:11;9.60;;;6.87;;
50880;SDS011;36858;47.832;-3.800;2023-03-01T08:42:40;8.87;;;6.67;;
50880;SDS011;36858;47.832;-3.800;2023-03-01T08:45:09;7.93;;;6.83;;
50880;SDS011;36858;47.832;-3.800;2023-03-01T08:47:37;7.80;;;6.67;;
50880;SDS011;36858;47.832;-3.800;2023-03-01T08:50:04;8.40;;;6.57;;
50880;SDS011;36858;47.832;-3.800;2023-03-01T08:52:31;9.23;;;6.93;;
50880;SDS011;36858;47.832;-3.800;2023-03-01T08:54:59;8.73;;;6.40;;
50880;SDS011;36858;47.832;-3.800;2023-03-01T08:57:27;9.37;;;6.50;;
50880;SDS011;36858;47.832;-3.800;2023-03-01T08:59:55;8.77;;;6.03;;
50880;SDS011;36858;47.832;-3.800;2023-03-01T09:02:22;10.27;;;7.33;;
50880;SDS011;36858;47.832;-3.800;2023-03-01T09:04:49;7.03;;;5.70;;
50880;SDS011;36858;47.832;-3.800;2023-03-01T09:07:16;7.90;;;6.20;;
50880;SDS011;36858;47.832;-3.800;2023-03-01T09:09:43;8.47;;;6.20;;
50880;SDS011;36858;47.832;-3.800;2023-03-01T09:12:10;7.40;;;5.83;;
50880;SDS011;36858;47.832;-3.800;2023-03-01T09:14:37;7.50;;;5.93;;
50880;SDS011;36858;47.832;-3.800;2023-03-01T09:17:05;12.03;;;7.10;;
50880;SDS011;36858;47.832;-3.800;2023-03-01T09:19:32;8.20;;;6.10;;
50880;SDS011;36858;47.832;-3.800;2023-03-01T09:21:58;8.27;;;6.40;;
50880;SDS011;36858;47.832;-3.800;2023-03-01T09:24:25;6.87;;;6.03;;
50880;SDS011;36858;47.832;-3.800;2023-03-01T09:26:53;8.27;;;6.20;;
50880;SDS011;36858;47.832;-3.800;2023-03-01T09:29:21;6.97;;;5.90;;
50880;SDS011;36858;47.832;-3.800;2023-03-01T09:31:48;7.77;;;5.87;;
50880;SDS011;36858;47.832;-3.800;2023-03-01T09:34:15;22.60;;;7.80;;
50880;SDS011;36858;47.832;-3.800;2023-03-01T09:36:45;9.07;;;6.10;;
50880;SDS011;36858;47.832;-3.800;2023-03-01T09:39:12;11.43;;;5.97;;
50880;SDS011;36858;47.832;-3.800;2023-03-01T09:41:49;6.83;;;5.67;;
50880;SDS011;36858;47.832;-3.800;2023-03-01T09:46:59;13.33;;;6.40;;
50880;SDS011;36858;47.832;-3.800;2023-03-01T09:49:28;12.10;;;6.93;;
50880;SDS011;36858;47.832;-3.800;2023-03-01T09:51:59;6.40;;;5.53;;
50880;SDS011;36858;47.832;-3.800;2023-03-01T09:54:35;7.20;;;5.63;;
50880;SDS011;36858;47.832;-3.800;2023-03-01T09:57:15;6.67;;;5.63;;
50880;SDS011;36858;47.832;-3.800;2023-03-01T10:02:45;8.43;;;5.80;;
50880;SDS011;36858;47.832;-3.800;2023-03-01T10:08:06;10.30;;;6.57;;
50880;SDS011;36858;47.832;-3.800;2023-03-01T10:10:46;12.37;;;7.60;;
50880;SDS011;36858;47.832;-3.800;2023-03-01T10:15:47;12.57;;;7.97;;
50880;SDS011;36858;47.832;-3.800;2023-03-01T10:18:28;15.87;;;9.47;;
50880;SDS011;36858;47.832;-3.800;2023-03-01T10:20:58;11.27;;;7.17;;
50880;SDS011;36858;47.832;-3.800;2023-03-01T10:23:27;9.37;;;6.87;;
50880;SDS011;36858;47.832;-3.800;2023-03-01T10:31:26;13.27;;;7.57;;
50880;SDS011;36858;47.832;-3.800;2023-03-01T10:34:10;15.03;;;7.07;;
50880;SDS011;36858;47.832;-3.800;2023-03-01T10:36:48;15.77;;;7.77;;
50880;SDS011;36858;47.832;-3.800;2023-03-01T10:39:21;11.40;;;7.73;;
50880;SDS011;36858;47.832;-3.800;2023-03-01T10:41:58;12.50;;;6.97;;
50880;SDS011;36858;47.832;-3.800;2023-03-01T10:44:36;15.90;;;8.37;;
50880;SDS011;36858;47.832;-3.800;2023-03-01T10:47:09;12.17;;;7.53;;
50880;SDS011;36858;47.832;-3.800;2023-03-01T10:49:51;10.80;;;7.67;;
50880;SDS011;36858;47.832;-3.800;2023-03-01T10:52:19;12.70;;;7.97;;
50880;SDS011;36858;47.832;-3.800;2023-03-01T10:54:57;21.13;;;11.07;;
50880;SDS011;36858;47.832;-3.800;2023-03-01T10:57:28;29.70;;;9.80;;
50880;SDS011;36858;47.832;-3.800;2023-03-01T11:00:14;16.20;;;8.97;;
50880;SDS011;36858;47.832;-3.800;2023-03-01T11:03:10;18.63;;;9.00;;
50880;SDS011;36858;47.832;-3.800;2023-03-01T11:05:54;14.63;;;8.67;;
50880;SDS011;36858;47.832;-3.800;2023-03-01T11:08:42;14.77;;;8.20;;
50880;SDS011;36858;47.832;-3.800;2023-03-01T11:11:22;18.20;;;8.90;;
50880;SDS011;36858;47.832;-3.800;2023-03-01T11:16:24;12.33;;;8.70;;
50880;SDS011;36858;47.832;-3.800;2023-03-01T11:18:57;12.17;;;8.50;;
50880;SDS011;36858;47.832;-3.800;2023-03-01T11:21:25;14.80;;;9.00;;
50880;SDS011;36858;47.832;-3.800;2023-03-01T11:23:53;15.73;;;9.20;;
50880;SDS011;36858;47.832;-3.800;2023-03-01T11:26:20;13.00;;;8.93;;
50880;SDS011;36858;47.832;-3.800;2023-03-01T11:28:49;14.30;;;8.10;;
50880;SDS011;36858;47.832;-3.800;2023-03-01T11:31:18;11.90;;;8.47;;
50880;SDS011;36858;47.832;-3.800;2023-03-01T11:39:39;12.63;;;8.97;;
50880;SDS011;36858;47.832;-3.800;2023-03-01T11:42:15;12.80;;;9.07;;
50880;SDS011;36858;47.832;-3.800;2023-03-01T11:44:50;11.87;;;8.50;;
50880;SDS011;36858;47.832;-3.800;2023-03-01T12:17:50;11.40;;;8.47;;
50880;SDS011;36858;47.832;-3.800;2023-03-01T12:45:54;12.87;;;8.40;;
50880;SDS011;36858;47.832;-3.800;2023-03-01T12:48:46;12.93;;;8.57;;
50880;SDS011;36858;47.832;-3.800;2023-03-01T12:51:34;14.67;;;8.90;;
50880;SDS011;36858;47.832;-3.800;2023-03-01T12:54:15;17.40;;;10.00;;
50880;SDS011;36858;47.832;-3.800;2023-03-01T12:56:53;18.83;;;9.77;;
50880;SDS011;36858;47.832;-3.800;2023-03-01T13:04:40;14.73;;;10.53;;
50880;SDS011;36858;47.832;-3.800;2023-03-01T13:10:17;18.77;;;11.17;;
50880;SDS011;36858;47.832;-3.800;2023-03-01T13:17:51;13.00;;;9.07;;
50880;SDS011;36858;47.832;-3.800;2023-03-01T13:20:34;13.23;;;9.43;;
50880;SDS011;36858;47.832;-3.800;2023-03-01T13:23:13;10.83;;;8.77;;
50880;SDS011;36858;47.832;-3.800;2023-03-01T13:28:48;11.73;;;8.23;;
50880;SDS011;36858;47.832;-3.800;2023-03-01T13:33:45;9.43;;;8.17;;
50880;SDS011;36858;47.832;-3.800;2023-03-01T13:39:26;10.53;;;8.23;;
50880;SDS011;36858;47.832;-3.800;2023-03-01T13:42:30;11.97;;;8.17;;
50880;SDS011;36858;47.832;-3.800;2023-03-01T13:44:57;9.47;;;8.33;;
50880;SDS011;36858;47.832;-3.800;2023-03-01T13:47:24;10.20;;;7.87;;
50880;SDS011;36858;47.832;-3.800;2023-03-01T13:49:52;10.67;;;8.70;;
50880;SDS011;36858;47.832;-3.800;2023-03-01T13:52:32;10.10;;;8.57;;
50880;SDS011;36858;47.832;-3.800;2023-03-01T13:57:44;8.90;;;7.93;;
50880;SDS011;36858;47.832;-3.800;2023-03-01T14:00:32;10.80;;;8.93;;
50880;SDS011;36858;47.832;-3.800;2023-03-01T14:05:57;12.77;;;9.43;;
50880;SDS011;36858;47.832;-3.800;2023-03-01T14:08:38;14.17;;;9.93;;
50880;SDS011;36858;47.832;-3.800;2023-03-01T14:17:00;14.20;;;8.77;;
50880;SDS011;36858;47.832;-3.800;2023-03-01T14:19:34;12.37;;;8.53;;
50880;SDS011;36858;47.832;-3.800;2023-03-01T14:24:59;11.23;;;8.57;;
50880;SDS011;36858;47.832;-3.800;2023-03-01T14:27:30;11.90;;;8.60;;
50880;SDS011;36858;47.832;-3.800;2023-03-01T14:30:02;11.33;;;8.23;;
50880;SDS011;36858;47.832;-3.800;2023-03-01T14:32:31;10.17;;;8.40;;
50880;SDS011;36858;47.832;-3.800;2023-03-01T14:34:59;8.93;;;8.03;;
50880;SDS011;36858;47.832;-3.800;2023-03-01T14:37:27;10.30;;;8.07;;
50880;SDS011;36858;47.832;-3.800;2023-03-01T14:39:59;9.33;;;8.37;;
50880;SDS011;36858;47.832;-3.800;2023-03-01T14:42:31;11.10;;;8.03;;
50880;SDS011;36858;47.832;-3.800;2023-03-01T14:45:01;9.17;;;8.23;;
50880;SDS011;36858;47.832;-3.800;2023-03-01T14:47:30;11.43;;;8.13;;
50880;SDS011;36858;47.832;-3.800;2023-03-01T14:50:02;9.47;;;8.33;;
50880;SDS011;36858;47.832;-3.800;2023-03-01T14:52:36;9.10;;;8.10;;
50880;SDS011;36858;47.832;-3.800;2023-03-01T14:55:05;10.40;;;8.67;;
50880;SDS011;36858;47.832;-3.800;2023-03-01T14:57:37;9.23;;;8.30;;
50880;SDS011;36858;47.832;-3.800;2023-03-01T15:00:10;8.37;;;7.57;;
50880;SDS011;36858;47.832;-3.800;2023-03-01T15:02:51;11.10;;;8.57;;
50880;SDS011;36858;47.832;-3.800;2023-03-01T15:05:27;8.57;;;7.67;;
50880;SDS011;36858;47.832;-3.800;2023-03-01T15:07:56;9.93;;;8.30;;
50880;SDS011;36858;47.832;-3.800;2023-03-01T15:10:26;10.77;;;8.33;;
50880;SDS011;36858;47.832;-3.800;2023-03-01T15:13:09;10.10;;;8.10;;
50880;SDS011;36858;47.832;-3.800;2023-03-01T15:15:38;9.20;;;8.20;;
50880;SDS011;36858;47.832;-3.800;2023-03-01T15:18:15;9.23;;;8.20;;
50880;SDS011;36858;47.832;-3.800;2023-03-01T15:20:50;9.30;;;8.40;;
50880;SDS011;36858;47.832;-3.800;2023-03-01T15:23:24;9.17;;;8.23;;
50880;SDS011;36858;47.832;-3.800;2023-03-01T15:25:53;10.27;;;8.70;;
50880;SDS011;36858;47.832;-3.800;2023-03-01T15:28:25;9.57;;;8.40;;
50880;SDS011;36858;47.832;-3.800;2023-03-01T15:30:57;9.00;;;8.10;;
50880;SDS011;36858;47.832;-3.800;2023-03-01T15:33:32;10.60;;;8.93;;
50880;SDS011;36858;47.832;-3.800;2023-03-01T15:38:57;9.90;;;8.27;;
50880;SDS011;36858;47.832;-3.800;2023-03-01T15:41:37;11.07;;;9.67;;
50880;SDS011;36858;47.832;-3.800;2023-03-01T15:44:15;12.10;;;9.43;;
50880;SDS011;36858;47.832;-3.800;2023-03-01T15:47:00;9.43;;;8.43;;
50880;SDS011;36858;47.832;-3.800;2023-03-01T15:49:41;12.60;;;9.07;;
50880;SDS011;36858;47.832;-3.800;2023-03-01T15:52:29;10.50;;;9.07;;
50880;SDS011;36858;47.832;-3.800;2023-03-01T15:55:03;11.63;;;10.07;;
50880;SDS011;36858;47.832;-3.800;2023-03-01T15:57:33;12.50;;;10.07;;
50880;SDS011;36858;47.832;-3.800;2023-03-01T16:00:00;13.97;;;9.93;;
50880;SDS011;36858;47.832;-3.800;2023-03-01T16:02:27;14.03;;;10.20;;
50880;SDS011;36858;47.832;-3.800;2023-03-01T16:04:54;12.17;;;9.17;;
50880;SDS011;36858;47.832;-3.800;2023-03-01T16:07:22;14.47;;;10.13;;
50880;SDS011;36858;47.832;-3.800;2023-03-01T16:09:49;13.27;;;9.77;;
50880;SDS011;36858;47.832;-3.800;2023-03-01T16:12:16;13.50;;;9.90;;
50880;SDS011;36858;47.832;-3.800;2023-03-01T16:14:43;13.37;;;10.10;;
50880;SDS011;36858;47.832;-3.800;2023-03-01T16:17:10;18.10;;;10.60;;
50880;SDS011;36858;47.832;-3.800;2023-03-01T16:19:37;13.37;;;9.70;;
50880;SDS011;36858;47.832;-3.800;2023-03-01T16:22:04;12.03;;;10.07;;
50880;SDS011;36858;47.832;-3.800;2023-03-01T16:24:31;15.97;;;10.20;;
50880;SDS011;36858;47.832;-3.800;2023-03-01T16:26:58;11.87;;;9.97;;
50880;SDS011;36858;47.832;-3.800;2023-03-01T16:29:25;11.77;;;9.57;;
50880;SDS011;36858;47.832;-3.800;2023-03-01T16:31:52;10.97;;;9.60;;
50880;SDS011;36858;47.832;-3.800;2023-03-01T16:34:20;10.77;;;9.67;;
50880;SDS011;36858;47.832;-3.800;2023-03-01T16:36:48;10.97;;;9.67;;
50880;SDS011;36858;47.832;-3.800;2023-03-01T16:39:15;16.40;;;11.03;;
50880;SDS011;36858;47.832;-3.800;2023-03-01T16:41:43;16.50;;;11.00;;
50880;SDS011;36858;47.832;-3.800;2023-03-01T16:44:10;15.40;;;10.67;;
50880;SDS011;36858;47.832;-3.800;2023-03-01T16:46:37;17.70;;;10.10;;
50880;SDS011;36858;47.832;-3.800;2023-03-01T16:49:03;16.83;;;11.23;;
50880;SDS011;36858;47.832;-3.800;2023-03-01T16:51:31;18.93;;;11.70;;
50880;SDS011;36858;47.832;-3.800;2023-03-01T16:54:01;17.07;;;11.20;;
50880;SDS011;36858;47.832;-3.800;2023-03-01T16:56:30;14.63;;;11.20;;
50880;SDS011;36858;47.832;-3.800;2023-03-01T16:59:00;17.30;;;11.40;;
50880;SDS011;36858;47.832;-3.800;2023-03-01T17:01:31;13.30;;;10.40;;
50880;SDS011;36858;47.832;-3.800;2023-03-01T17:04:04;15.20;;;11.47;;
50880;SDS011;36858;47.832;-3.800;2023-03-01T17:06:31;19.47;;;12.37;;
50880;SDS011;36858;47.832;-3.800;2023-03-01T17:08:58;17.30;;;11.30;;
50880;SDS011;36858;47.832;-3.800;2023-03-01T17:11:25;13.93;;;11.50;;
50880;SDS011;36858;47.832;-3.800;2023-03-01T17:13:53;13.23;;;10.50;;
50880;SDS011;36858;47.832;-3.800;2023-03-01T17:16:21;14.37;;;11.07;;
50880;SDS011;36858;47.832;-3.800;2023-03-01T17:18:48;14.73;;;10.67;;
50880;SDS011;36858;47.832;-3.800;2023-03-01T17:21:15;15.23;;;11.17;;
50880;SDS011;36858;47.832;-3.800;2023-03-01T17:23:43;14.97;;;11.37;;
50880;SDS011;36858;47.832;-3.800;2023-03-01T17:26:11;13.30;;;11.40;;
50880;SDS011;36858;47.832;-3.800;2023-03-01T17:28:39;13.97;;;10.57;;
50880;SDS011;36858;47.832;-3.800;2023-03-01T17:31:06;13.33;;;11.90;;
50880;SDS011;36858;47.832;-3.800;2023-03-01T17:33:33;13.50;;;10.67;;
50880;SDS011;36858;47.832;-3.800;2023-03-01T17:36:01;14.50;;;11.80;;
50880;SDS011;36858;47.832;-3.800;2023-03-01T17:38:28;17.13;;;11.10;;
50880;SDS011;36858;47.832;-3.800;2023-03-01T17:40:57;15.63;;;11.40;;
50880;SDS011;36858;47.832;-3.800;2023-03-01T17:43:25;15.13;;;10.30;;
50880;SDS011;36858;47.832;-3.800;2023-03-01T17:45:52;12.80;;;10.67;;
50880;SDS011;36858;47.832;-3.800;2023-03-01T17:48:20;15.57;;;10.13;;
50880;SDS011;36858;47.832;-3.800;2023-03-01T17:50:47;15.33;;;10.63;;
50880;SDS011;36858;47.832;-3.800;2023-03-01T17:53:14;11.53;;;9.87;;
50880;SDS011;36858;47.832;-3.800;2023-03-01T17:55:41;14.17;;;11.97;;
50880;SDS011;36858;47.832;-3.800;2023-03-01T17:58:09;16.13;;;12.77;;
50880;SDS011;36858;47.832;-3.800;2023-03-01T18:00:38;15.90;;;12.23;;
50880;SDS011;36858;47.832;-3.800;2023-03-01T18:03:05;30.33;;;19.80;;
50880;SDS011;36858;47.832;-3.800;2023-03-01T18:05:36;25.60;;;19.73;;
50880;SDS011;36858;47.832;-3.800;2023-03-01T18:08:03;24.97;;;19.17;;
50880;SDS011;36858;47.832;-3.800;2023-03-01T18:10:31;29.80;;;21.07;;
50880;SDS011;36858;47.832;-3.800;2023-03-01T18:12:58;25.50;;;19.90;;
50880;SDS011;36858;47.832;-3.800;2023-03-01T18:15:25;22.27;;;18.30;;
50880;SDS011;36858;47.832;-3.800;2023-03-01T18:17:52;22.47;;;16.13;;
50880;SDS011;36858;47.832;-3.800;2023-03-01T18:20:20;17.07;;;14.53;;
50880;SDS011;36858;47.832;-3.800;2023-03-01T18:22:47;14.93;;;13.13;;
50880;SDS011;36858;47.832;-3.800;2023-03-01T18:25:14;16.13;;;13.03;;
50880;SDS011;36858;47.832;-3.800;2023-03-01T18:27:41;18.07;;;13.40;;
50880;SDS011;36858;47.832;-3.800;2023-03-01T18:30:08;16.57;;;13.50;;
50880;SDS011;36858;47.832;-3.800;2023-03-01T18:32:36;15.33;;;13.17;;
50880;SDS011;36858;47.832;-3.800;2023-03-01T18:35:05;15.50;;;11.90;;
50880;SDS011;36858;47.832;-3.800;2023-03-01T18:37:33;14.13;;;11.07;;
50880;SDS011;36858;47.832;-3.800;2023-03-01T18:40:00;15.37;;;11.53;;
50880;SDS011;36858;47.832;-3.800;2023-03-01T18:42:27;14.07;;;11.57;;
50880;SDS011;36858;47.832;-3.800;2023-03-01T18:44:54;14.10;;;10.47;;
50880;SDS011;36858;47.832;-3.800;2023-03-01T18:47:21;13.27;;;10.37;;
50880;SDS011;36858;47.832;-3.800;2023-03-01T18:49:48;12.37;;;10.47;;
50880;SDS011;36858;47.832;-3.800;2023-03-01T18:52:14;13.70;;;10.33;;
50880;SDS011;36858;47.832;-3.800;2023-03-01T18:54:42;13.30;;;10.50;;
50880;SDS011;36858;47.832;-3.800;2023-03-01T18:57:08;11.83;;;10.00;;
50880;SDS011;36858;47.832;-3.800;2023-03-01T18:59:35;10.87;;;8.77;;
50880;SDS011;36858;47.832;-3.800;2023-03-01T19:02:02;14.50;;;9.53;;
50880;SDS011;36858;47.832;-3.800;2023-03-01T19:04:29;10.77;;;9.40;;
50880;SDS011;36858;47.832;-3.800;2023-03-01T19:06:56;14.87;;;9.53;;
50880;SDS011;36858;47.832;-3.800;2023-03-01T19:09:23;14.40;;;9.47;;
50880;SDS011;36858;47.832;-3.800;2023-03-01T19:11:50;12.10;;;10.03;;
50880;SDS011;36858;47.832;-3.800;2023-03-01T19:14:17;11.63;;;9.30;;
50880;SDS011;36858;47.832;-3.800;2023-03-01T19:16:43;15.50;;;13.10;;
50880;SDS011;36858;47.832;-3.800;2023-03-01T19:19:10;20.23;;;16.43;;
50880;SDS011;36858;47.832;-3.800;2023-03-01T19:21:37;16.77;;;13.80;;
50880;SDS011;36858;47.832;-3.800;2023-03-01T19:24:04;16.07;;;12.67;;
50880;SDS011;36858;47.832;-3.800;2023-03-01T19:26:31;13.53;;;11.77;;
50880;SDS011;36858;47.832;-3.800;2023-03-01T19:28:59;14.03;;;10.50;;
50880;SDS011;36858;47.832;-3.800;2023-03-01T19:31:27;11.43;;;9.87;;
50880;SDS011;36858;47.832;-3.800;2023-03-01T19:33:55;14.67;;;9.60;;
50880;SDS011;36858;47.832;-3.800;2023-03-01T19:36:41;12.47;;;9.37;;
50880;SDS011;36858;47.832;-3.800;2023-03-01T19:39:08;12.10;;;9.13;;
50880;SDS011;36858;47.832;-3.800;2023-03-01T19:41:39;9.87;;;8.47;;
50880;SDS011;36858;47.832;-3.800;2023-03-01T19:44:06;9.80;;;8.13;;
50880;SDS011;36858;47.832;-3.800;2023-03-01T19:46:34;11.37;;;7.63;;
50880;SDS011;36858;47.832;-3.800;2023-03-01T19:49:01;9.33;;;7.63;;
50880;SDS011;36858;47.832;-3.800;2023-03-01T19:51:29;8.83;;;7.93;;
50880;SDS011;36858;47.832;-3.800;2023-03-01T19:53:58;8.37;;;6.90;;
50880;SDS011;36858;47.832;-3.800;2023-03-01T19:56:25;11.23;;;7.87;;
50880;SDS011;36858;47.832;-3.800;2023-03-01T19:58:52;11.97;;;7.47;;
50880;SDS011;36858;47.832;-3.800;2023-03-01T20:01:26;8.07;;;7.23;;
50880;SDS011;36858;47.832;-3.800;2023-03-01T20:03:58;9.73;;;7.70;;
50880;SDS011;36858;47.832;-3.800;2023-03-01T20:06:26;10.23;;;7.90;;
50880;SDS011;36858;47.832;-3.800;2023-03-01T20:08:55;10.17;;;7.57;;
50880;SDS011;36858;47.832;-3.800;2023-03-01T20:11:23;8.73;;;7.53;;
50880;SDS011;36858;47.832;-3.800;2023-03-01T20:13:50;9.53;;;7.07;;
50880;SDS011;36858;47.832;-3.800;2023-03-01T20:16:17;11.37;;;7.20;;
50880;SDS011;36858;47.832;-3.800;2023-03-01T20:18:45;8.90;;;7.00;;
50880;SDS011;36858;47.832;-3.800;2023-03-01T20:21:12;9.30;;;6.60;;
50880;SDS011;36858;47.832;-3.800;2023-03-01T20:23:50;9.77;;;6.83;;
50880;SDS011;36858;47.832;-3.800;2023-03-01T20:26:17;9.53;;;7.43;;
50880;SDS011;36858;47.832;-3.800;2023-03-01T20:28:50;8.63;;;7.10;;
50880;SDS011;36858;47.832;-3.800;2023-03-01T20:31:18;7.77;;;6.40;;
50880;SDS011;36858;47.832;-3.800;2023-03-01T20:33:46;8.73;;;6.20;;
50880;SDS011;36858;47.832;-3.800;2023-03-01T20:36:14;6.60;;;5.90;;
50880;SDS011;36858;47.832;-3.800;2023-03-01T20:38:41;6.27;;;5.60;;
50880;SDS011;36858;47.832;-3.800;2023-03-01T20:41:08;8.17;;;5.67;;
50880;SDS011;36858;47.832;-3.800;2023-03-01T20:43:37;7.10;;;6.10;;
50880;SDS011;36858;47.832;-3.800;2023-03-01T20:46:04;7.60;;;6.33;;
50880;SDS011;36858;47.832;-3.800;2023-03-01T20:48:32;12.03;;;6.50;;
50880;SDS011;36858;47.832;-3.800;2023-03-01T20:50:59;6.50;;;5.60;;
50880;SDS011;36858;47.832;-3.800;2023-03-01T20:53:27;6.93;;;5.77;;
50880;SDS011;36858;47.832;-3.800;2023-03-01T20:55:54;10.33;;;6.07;;
50880;SDS011;36858;47.832;-3.800;2023-03-01T20:58:21;11.50;;;6.57;;
50880;SDS011;36858;47.832;-3.800;2023-03-01T21:00:51;6.93;;;5.83;;
50880;SDS011;36858;47.832;-3.800;2023-03-01T21:03:18;7.20;;;5.60;;
50880;SDS011;36858;47.832;-3.800;2023-03-01T21:05:45;6.50;;;5.50;;
